Latest Weather Observations for Redesdale

IDV60801

Issued at 11:31 am EST Wednesday 27 May 2015 (issued every 30 minutes, with the page automatically refreshed every 10 minutes)

About weather observations | Map of weather stations | Latest weather observations for VIC | Other Formats
Station Details ID: 088051 Name: REDESDALE Lat: -37.02 Lon: 144.52 Height: 290.0 m
Data from the previous 72 hours. | See also: Recent months at Redesdale
Date/Time
EST
Temp
°C
App
Temp
°C
Dew
Point
Rel
Hum
%
Delta-T
°C
Wind Press
QNH
hPa
Press
MSL
hPa
Rain
since 9 am
mm
Dir
 
Spd
km/h
Gust
km/h
Spd
kts
Gust
kts
27/11:30am 11.6 9.9 8.5 81 1.6 NNE 7 13 4 7 - - 0.0
27/11:00am 12.2 10.2 8.7 79 1.8 NNE 9 15 5 8 - - 0.0
27/10:30am 11.3 8.7 7.8 79 1.7 NE 11 17 6 9 - - 0.0
27/10:00am 11.2 9.6 8.1 81 1.5 NNE 6 13 3 7 - - 0.0
27/09:30am 10.4 9.0 7.1 80 1.6 NE 4 6 2 3 - - 0.0
27/09:00am 9.9 8.5 7.2 83 1.3 ENE 4 6 2 3 - - -
27/08:30am 9.4 7.9 7.0 85 1.1 ENE 4 7 2 4 - - -
27/08:00am 9.3 7.8 6.7 84 1.2 NE 4 6 2 3 - - -
27/07:30am 9.2 7.7 6.6 84 1.2 NE 4 6 2 3 - - -
27/07:00am 9.2 7.3 6.6 84 1.2 ENE 6 7 3 4 - - -
27/06:30am 9.2 7.3 6.6 84 1.2 ENE 6 9 3 5 - - -
27/06:00am 9.2 7.7 6.8 85 1.1 E 4 9 2 5 - - -
27/05:30am 8.6 6.5 6.6 87 0.9 ESE 7 11 4 6 - - -
27/05:00am 9.0 6.6 6.8 86 1.0 ESE 9 13 5 7 - - -
27/04:30am 8.6 6.7 6.7 88 0.9 ESE 6 9 3 5 - - -
27/04:00am 8.3 6.8 6.6 89 0.8 ESE 4 6 2 3 - - -
27/03:30am 8.3 6.7 6.4 88 0.9 E 4 6 2 3 - - -
27/03:00am 8.2 6.6 6.3 88 0.9 ESE 4 6 2 3 - - 0.0
27/02:30am 8.2 6.1 6.5 89 0.8 ESE 7 9 4 5 - - -
27/02:00am 8.2 6.6 6.5 89 0.8 E 4 6 2 3 - - -
27/01:30am 7.4 5.7 5.9 90 0.7 ESE 4 6 2 3 - - -
27/01:00am 7.9 5.8 6.0 88 0.9 ESE 6 6 3 3 - - -
27/12:30am 7.9 6.6 6.2 89 0.8 ESE 2 6 1 3 - - -
27/12:00am 7.8 5.8 6.4 91 0.7 ESE 6 11 3 6 - - -
 
Date/Time
EST
Temp
°C
App
Temp
°C
Dew
Point
Rel
Hum
%
Delta-T
°C
Wind Press
QNH
hPa
Press
MSL
hPa
Rain
since 9 am
mm
Dir
 
Spd
km/h
Gust
km/h
Spd
kts
Gust
kts
26/11:30pm 6.9 5.1 5.5 91 0.6 SSE 4 4 2 2 - - -
26/11:00pm 6.6 4.8 5.6 93 0.5 S 4 6 2 3 - - -
26/10:30pm 5.9 3.6 5.0 94 0.4 SSW 6 6 3 3 - - -
26/10:00pm 5.5 3.2 4.6 94 0.4 SSW 6 7 3 4 - - -
26/09:30pm 5.1 2.5 4.1 93 0.4 S 7 7 4 4 - - -
26/09:00pm 4.6 2.1 3.6 93 0.4 S 6 6 3 3 - - -
26/08:30pm 4.7 2.5 3.5 92 0.5 SE 4 6 2 3 - - -
26/08:00pm 5.6 3.2 4.1 90 0.6 SE 6 6 3 3 - - -
26/07:30pm 5.9 4.3 4.4 90 0.7 SE 2 4 1 2 - - -
26/07:00pm 6.8 4.3 5.0 88 0.8 ESE 7 9 4 5 - - -
26/06:30pm 7.5 5.6 5.0 84 1.1 ENE 4 6 2 3 - - -
26/06:00pm 8.1 6.7 5.4 83 1.2 ENE 2 4 1 2 - - -
26/05:30pm 9.1 7.2 5.1 76 1.8 ENE 4 4 2 2 - - -
26/05:00pm 11.6 10.4 6.3 70 2.5 NE 2 4 1 2 - - -
26/04:30pm 12.5 10.5 6.1 65 3.1 NNE 6 9 3 5 - - -
26/03:30pm 13.7 11.6 6.8 63 3.4 N 7 11 4 6 - - 0.0
26/03:00pm 12.4 10.8 6.2 66 3.0 ENE 4 7 2 4 - - 0.0
26/02:30pm 12.4 10.3 6.5 67 2.9 N 7 9 4 5 - - 0.0
26/02:00pm 13.1 11.2 6.5 64 3.2 NNE 6 11 3 6 - - 0.0
26/01:30pm 13.8 11.8 6.4 61 3.6 N 6 9 3 5 - - 0.0
26/01:00pm 13.1 11.1 6.2 63 3.3 NNE 6 9 3 5 - - 0.0
26/12:30pm 12.9 10.4 6.5 65 3.1 N 9 11 5 6 - - 0.0
26/12:00pm 12.4 10.2 6.0 65 3.1 NNE 7 9 4 5 - - 0.0
26/11:30am 11.5 9.5 6.4 71 2.4 N 6 11 3 6 - - 0.0
26/11:00am 11.6 10.1 6.9 73 2.3 NNE 4 9 2 5 - - 0.0
26/10:30am 10.6 9.4 6.6 76 1.9 E 2 4 1 2 - - 0.0
26/10:00am 9.8 8.2 6.3 79 1.7 SE 4 4 2 2 - - 0.0
26/09:30am 8.7 6.9 7.0 89 0.8 S 6 6 3 3 - - 0.0
26/09:00am 6.7 4.5 5.5 92 0.5 SSW 6 9 3 5 - - 0.2
26/08:30am 4.7 2.0 3.8 94 0.4 SW 7 9 4 5 - - 0.2
26/08:00am 3.3 -0.4 2.4 94 0.4 SSW 11 13 6 7 - - 0.2
26/07:30am 2.1 -1.8 1.4 95 0.3 SSW 11 15 6 8 - - 0.2
26/07:00am 1.2 -2.8 0.6 96 0.2 SSW 11 13 6 7 - - 0.2
26/06:30am 1.3 -2.7 0.6 95 0.3 SSW 11 11 6 6 - - 0.2
26/06:00am 1.6 -2.3 1.0 96 0.2 SSW 11 13 6 7 - - 0.2
26/05:30am 1.4 -2.6 0.7 95 0.3 SSW 11 15 6 8 - - 0.0
26/05:00am 1.8 -2.1 1.1 95 0.3 SSW 11 13 6 7 - - 0.0
26/04:30am 1.4 -2.9 0.8 96 0.2 SSW 13 15 7 8 - - 0.0
26/04:00am 1.7 -2.2 1.3 97 0.2 SSW 11 13 6 7 - - 0.0
26/03:30am 1.1 -2.9 0.7 97 0.2 SSW 11 13 6 7 - - 0.0
26/03:00am 0.8 -2.8 0.4 97 0.1 SSW 9 11 5 6 - - 0.0
26/02:30am 1.5 -2.0 1.1 97 0.2 S 9 11 5 6 - - 0.0
26/02:00am 1.1 -2.5 0.5 96 0.2 SSW 9 11 5 6 - - 0.0
26/01:30am 1.6 -2.3 0.9 95 0.3 SSW 11 13 6 7 - - 0.0
26/01:00am 1.9 -2.0 1.2 95 0.3 SSW 11 13 6 7 - - 0.0
26/12:30am 3.0 -0.7 2.3 95 0.3 SSW 11 15 6 8 - - 0.0
26/12:00am 3.1 -1.0 2.4 95 0.3 SSW 13 13 7 7 - - 0.0
 
Date/Time
EST
Temp
°C
App
Temp
°C
Dew
Point
Rel
Hum
%
Delta-T
°C
Wind Press
QNH
hPa
Press
MSL
hPa
Rain
since 9 am
mm
Dir
 
Spd
km/h
Gust
km/h
Spd
kts
Gust
kts
25/11:30pm 3.0 -0.7 2.3 95 0.3 SSW 11 13 6 7 - - 0.0
25/11:00pm 3.1 -0.2 2.2 94 0.4 SSW 9 13 5 7 - - 0.0
25/10:30pm 3.4 0.1 2.5 94 0.4 SSW 9 11 5 6 - - 0.0
25/10:00pm 3.6 0.0 2.7 94 0.4 S 11 13 6 7 - - 0.0
25/09:30pm 3.9 0.3 3.2 95 0.3 SSW 11 13 6 7 - - 0.0
25/09:00pm 3.4 0.5 2.5 94 0.4 SSW 7 9 4 5 - - 0.0
25/08:30pm 3.7 0.8 2.8 94 0.4 SSW 7 9 4 5 - - 0.0
25/08:00pm 4.1 1.3 3.1 93 0.4 SSW 7 9 4 5 - - 0.0
25/07:30pm 4.2 1.5 2.7 90 0.6 S 6 7 3 4 - - 0.0
25/07:00pm 5.5 4.1 3.7 88 0.8 CALM 0 4 0 2 - - 0.0
25/06:30pm 7.0 5.7 4.1 82 1.3 CALM 0 0 0 0 - - 0.0
25/06:00pm 8.5 7.3 4.5 76 1.8 CALM 0 0 0 0 - - 0.0
25/05:30pm 10.4 9.2 4.8 68 2.6 CALM 0 0 0 0 - - 0.0
25/05:00pm 12.1 11.0 5.0 62 3.3 CALM 0 2 0 1 - - 0.0
25/04:30pm 13.3 11.5 5.2 58 3.8 NNW 4 4 2 2 - - 0.0
25/04:00pm 14.3 12.6 5.9 57 4.1 N 4 7 2 4 - - 0.0
25/03:30pm 13.8 11.7 5.7 58 3.9 N 6 9 3 5 - - 0.0
25/03:00pm 14.0 12.1 4.9 54 4.3 NNE 4 7 2 4 - - 0.0
25/02:30pm 14.4 12.7 5.7 56 4.2 NNW 4 6 2 3 - - 0.0
25/02:00pm 14.4 12.3 5.7 56 4.2 N 6 9 3 5 - - 0.0
25/01:30pm 13.7 11.9 5.3 57 4.0 N 4 7 2 4 - - 0.0
25/01:00pm 12.5 11.2 6.1 65 3.1 N 2 6 1 3 - - 0.0
25/12:30pm 12.1 10.2 6.6 69 2.7 N 6 9 3 5 - - 0.0
25/12:00pm 11.5 9.4 5.6 67 2.8 NNE 6 7 3 4 - - 0.0
25/11:30am 10.4 9.1 6.0 74 2.1 E 2 2 1 1 - - 0.0
25/11:00am 9.7 8.8 6.1 78 1.7 CALM 0 0 0 0 - - 0.0
25/10:30am 9.0 7.8 6.3 83 1.3 E 2 6 1 3 - - 0.0
25/10:00am 8.5 7.3 6.3 86 1.0 SE 2 6 1 3 - - 0.0
25/09:30am 7.6 5.6 6.1 90 0.7 S 6 7 3 4 - - 0.0
25/09:00am 6.9 5.2 5.8 93 0.5 SSW 4 6 2 3 - - 0.2
25/08:30am 6.1 3.9 5.4 95 0.3 SSW 6 7 3 4 - - 0.2
25/08:00am 4.7 2.0 3.8 94 0.4 SSW 7 9 4 5 - - 0.2
25/07:30am 4.6 1.9 3.9 95 0.3 S 7 9 4 5 - - 0.2
25/07:00am 4.6 1.9 3.7 94 0.4 S 7 9 4 5 - - 0.2
25/06:30am 4.5 1.8 3.8 95 0.3 S 7 7 4 4 - - 0.2
25/06:00am 4.3 1.7 3.4 94 0.4 SSW 6 7 3 4 - - 0.2
25/05:30am 4.9 2.8 3.9 93 0.4 SSE 4 7 2 4 - - 0.2
25/05:00am 5.2 2.7 4.0 92 0.5 SSW 6 9 3 5 - - 0.2
25/04:30am 5.5 3.1 4.3 92 0.5 WSW 6 7 3 4 - - 0.2
25/04:00am 5.0 2.0 4.1 94 0.4 SSW 9 13 5 7 - - 0.2
25/03:30am 4.7 2.0 3.8 94 0.4 SSW 7 9 4 5 - - 0.2
25/03:00am 4.9 1.9 4.0 94 0.4 S 9 11 5 6 - - 0.2
25/02:30am 4.8 1.8 4.1 95 0.3 S 9 9 5 5 - - 0.2
25/02:00am 4.5 2.0 3.8 95 0.3 S 6 7 3 4 - - 0.2
25/01:30am 4.2 1.1 3.5 95 0.3 SSW 9 9 5 5 - - 0.2
25/01:00am 4.4 1.3 3.8 96 0.3 SSW 9 9 5 5 - - 0.2
25/12:30am 3.7 0.5 3.1 96 0.2 SSW 9 11 5 6 - - 0.2
25/12:00am 3.7 0.5 3.1 96 0.2 S 9 11 5 6 - - 0.2
 
Date/Time
EST
Temp
°C
App
Temp
°C
Dew
Point
Rel
Hum
%
Delta-T
°C
Wind Press
QNH
hPa
Press
MSL
hPa
Rain
since 9 am
mm
Dir
 
Spd
km/h
Gust
km/h
Spd
kts
Gust
kts
24/11:30pm 3.2 -0.1 2.6 96 0.2 SSW 9 13 5 7 - - 0.2
24/11:00pm 3.6 0.4 3.0 96 0.2 S 9 9 5 5 - - 0.2
24/10:30pm 3.1 0.2 2.5 96 0.2 SSW 7 9 4 5 - - 0.0
24/10:00pm 2.9 -0.4 2.2 95 0.3 S 9 9 5 5 - - 0.0
24/09:30pm 3.7 0.9 3.1 96 0.2 SSW 7 9 4 5 - - 0.0
24/09:00pm 3.7 0.9 3.1 96 0.2 SW 7 9 4 5 - - 0.0
24/08:30pm 3.7 0.5 3.0 95 0.3 S 9 9 5 5 - - 0.0
24/08:00pm 3.9 1.1 3.2 95 0.3 SSE 7 9 4 5 - - 0.0
24/07:30pm 4.0 1.2 3.1 94 0.4 SW 7 9 4 5 - - 0.0
24/07:00pm 4.4 2.1 2.9 90 0.6 ENE 4 6 2 3 - - 0.0
24/06:30pm 6.5 5.2 4.3 86 1.0 CALM 0 0 0 0 - - 0.0
24/06:00pm 8.2 7.1 5.0 80 1.4 CALM 0 0 0 0 - - 0.0
24/05:30pm 9.2 7.4 5.2 76 1.8 NE 4 6 2 3 - - 0.0
24/05:00pm 10.4 9.0 5.4 71 2.3 NNE 2 4 1 2 - - 0.0
24/04:30pm 11.4 9.7 5.7 68 2.7 NNE 4 4 2 2 - - 0.0
24/04:00pm 11.6 9.8 5.5 66 2.9 N 4 6 2 3 - - 0.0
24/03:30pm 12.0 9.7 5.6 65 3.0 NW 7 11 4 6 - - 0.0
24/03:00pm 12.6 10.3 5.5 62 3.4 N 7 9 4 5 - - 0.0
24/02:30pm 12.7 10.3 5.1 60 3.6 N 7 13 4 7 - - 0.0
24/02:00pm 12.3 9.9 5.2 62 3.3 NNE 7 13 4 7 - - 0.0
24/01:30pm 11.9 9.7 5.3 64 3.1 N 6 9 3 5 - - 0.0
24/01:00pm 13.1 10.6 5.0 58 3.8 NNW 7 11 4 6 - - 0.0
24/12:30pm 12.1 9.6 4.8 61 3.4 N 7 13 4 7 - - 0.0
24/12:00pm 11.9 10.2 5.8 66 2.9 NNE 4 7 2 4 - - 0.0

Other Formats:

Comma delimited format used in spreadsheet applications
http://www.bom.gov.au/fwo/IDV60801/IDV60801.94859.axf

JavaScript Object Notation format (JSON) in row-major order
http://www.bom.gov.au/fwo/IDV60801/IDV60801.94859.json